KCKV/CKV METAR and TAF weather

Enter ICAO airport designator
Station Type Date Time Source
KCKV METAR 2020/07/10 16:20 UTC NOAA

KCKV 101620Z AUTO 29008KT 10SM FEW025 SCT037 29/23 A2994 RMK AO2 T02940233


Station Type Date Time Source
KCKV Decoded METAR 2020/07/10 16:20 UTC NOAA

CLARKSVILLE OUTLAW FIELD, TN, United States (KCKV) 36-37N 87-25W 165M
Jul 10, 2020 - 12:20 PM EDT / 2020.07.10 1620 UTC
Wind: from the WNW (290 degrees) at 9 MPH (8 KT):0
Visibility: 10 mile(s):0
Sky conditions: partly cloudy
Temperature: 84.9 F (29.4 C)
Dew Point: 73.9 F (23.3 C)
Relative Humidity: 69%
Pressure (altimeter): 29.94 in. Hg (1013 hPa)
ob: KCKV 101620Z AUTO 29008KT 10SM FEW025 SCT037 29/23 A2994 RMK AO2 T02940233
cycle: 16

Station Type Date Time Source
KCKV TAF 2020/07/10 14:27 UTC NOAA

TAF
AMD KCKV 101425Z 1014/1112 29007KT P6SM BKN015
FM101600 30009G15KT P6SM SCT050
FM102200 32010G16KT P6SM SCT250

Example: see airport list